sensor_id;sensor_type;location;lat;lon;timestamp;P1;durP1;ratioP1;P2;durP2;ratioP2
40675;SDS011;26359;48.750;9.314;2023-05-07T00:00:12;9.32;;;8.40;;
40675;SDS011;26359;48.750;9.314;2023-05-07T00:02:40;8.70;;;8.00;;
40675;SDS011;26359;48.750;9.314;2023-05-07T00:05:06;9.02;;;8.20;;
40675;SDS011;26359;48.750;9.314;2023-05-07T00:07:32;9.88;;;9.07;;
40675;SDS011;26359;48.750;9.314;2023-05-07T00:09:57;11.07;;;9.18;;
40675;SDS011;26359;48.750;9.314;2023-05-07T00:12:23;11.65;;;10.68;;
40675;SDS011;26359;48.750;9.314;2023-05-07T00:14:48;8.13;;;7.40;;
40675;SDS011;26359;48.750;9.314;2023-05-07T00:17:14;9.90;;;7.95;;
40675;SDS011;26359;48.750;9.314;2023-05-07T00:19:40;11.35;;;10.25;;
40675;SDS011;26359;48.750;9.314;2023-05-07T00:22:05;11.32;;;10.32;;
40675;SDS011;26359;48.750;9.314;2023-05-07T00:24:31;11.77;;;10.77;;
40675;SDS011;26359;48.750;9.314;2023-05-07T00:26:57;15.93;;;14.88;;
40675;SDS011;26359;48.750;9.314;2023-05-07T00:29:23;13.85;;;12.85;;
40675;SDS011;26359;48.750;9.314;2023-05-07T00:31:49;20.40;;;18.80;;
40675;SDS011;26359;48.750;9.314;2023-05-07T00:34:15;18.23;;;17.02;;
40675;SDS011;26359;48.750;9.314;2023-05-07T00:36:40;15.70;;;14.50;;
40675;SDS011;26359;48.750;9.314;2023-05-07T00:39:06;20.23;;;18.52;;
40675;SDS011;26359;48.750;9.314;2023-05-07T00:41:31;22.23;;;20.83;;
40675;SDS011;26359;48.750;9.314;2023-05-07T00:43:57;28.98;;;26.92;;
40675;SDS011;26359;48.750;9.314;2023-05-07T00:46:22;20.52;;;19.10;;
40675;SDS011;26359;48.750;9.314;2023-05-07T00:48:49;22.77;;;21.23;;
40675;SDS011;26359;48.750;9.314;2023-05-07T00:51:15;16.40;;;15.20;;
40675;SDS011;26359;48.750;9.314;2023-05-07T00:53:42;17.98;;;16.67;;
40675;SDS011;26359;48.750;9.314;2023-05-07T00:56:08;17.05;;;15.68;;
40675;SDS011;26359;48.750;9.314;2023-05-07T00:58:34;18.73;;;17.17;;
40675;SDS011;26359;48.750;9.314;2023-05-07T01:01:00;15.35;;;14.20;;
40675;SDS011;26359;48.750;9.314;2023-05-07T01:03:26;13.20;;;11.82;;
40675;SDS011;26359;48.750;9.314;2023-05-07T01:05:52;13.50;;;11.23;;
40675;SDS011;26359;48.750;9.314;2023-05-07T01:08:18;11.80;;;10.73;;
40675;SDS011;26359;48.750;9.314;2023-05-07T01:10:45;11.05;;;10.25;;
40675;SDS011;26359;48.750;9.314;2023-05-07T01:13:11;13.95;;;12.95;;
40675;SDS011;26359;48.750;9.314;2023-05-07T01:15:38;22.55;;;20.88;;
40675;SDS011;26359;48.750;9.314;2023-05-07T01:18:06;10.32;;;9.52;;
40675;SDS011;26359;48.750;9.314;2023-05-07T01:20:31;13.13;;;12.13;;
40675;SDS011;26359;48.750;9.314;2023-05-07T01:22:57;12.07;;;10.93;;
40675;SDS011;26359;48.750;9.314;2023-05-07T01:25:25;12.57;;;11.27;;
40675;SDS011;26359;48.750;9.314;2023-05-07T01:27:50;10.82;;;9.93;;
40675;SDS011;26359;48.750;9.314;2023-05-07T01:30:16;10.35;;;9.55;;
40675;SDS011;26359;48.750;9.314;2023-05-07T01:32:47;13.75;;;12.77;;
40675;SDS011;26359;48.750;9.314;2023-05-07T01:35:15;14.00;;;12.77;;
40675;SDS011;26359;48.750;9.314;2023-05-07T01:37:47;21.58;;;19.63;;
40675;SDS011;26359;48.750;9.314;2023-05-07T01:40:13;20.48;;;19.02;;
40675;SDS011;26359;48.750;9.314;2023-05-07T01:42:39;16.60;;;15.15;;
40675;SDS011;26359;48.750;9.314;2023-05-07T01:45:07;30.13;;;28.30;;
40675;SDS011;26359;48.750;9.314;2023-05-07T01:47:33;55.40;;;52.30;;
40675;SDS011;26359;48.750;9.314;2023-05-07T01:50:00;36.55;;;34.35;;
40675;SDS011;26359;48.750;9.314;2023-05-07T01:52:27;43.58;;;41.13;;
40675;SDS011;26359;48.750;9.314;2023-05-07T01:54:53;30.65;;;28.58;;
40675;SDS011;26359;48.750;9.314;2023-05-07T01:57:18;33.83;;;31.67;;
40675;SDS011;26359;48.750;9.314;2023-05-07T01:59:44;27.77;;;25.98;;
40675;SDS011;26359;48.750;9.314;2023-05-07T02:02:09;19.55;;;18.23;;
40675;SDS011;26359;48.750;9.314;2023-05-07T02:04:35;18.58;;;17.30;;
40675;SDS011;26359;48.750;9.314;2023-05-07T02:07:01;17.55;;;16.27;;
40675;SDS011;26359;48.750;9.314;2023-05-07T02:09:27;22.10;;;20.55;;
40675;SDS011;26359;48.750;9.314;2023-05-07T02:11:53;25.45;;;23.85;;
40675;SDS011;26359;48.750;9.314;2023-05-07T02:14:18;23.27;;;21.65;;
40675;SDS011;26359;48.750;9.314;2023-05-07T02:16:45;19.95;;;18.45;;
40675;SDS011;26359;48.750;9.314;2023-05-07T02:19:10;17.65;;;16.27;;
40675;SDS011;26359;48.750;9.314;2023-05-07T02:21:36;25.52;;;23.92;;
40675;SDS011;26359;48.750;9.314;2023-05-07T02:24:01;19.58;;;17.98;;
40675;SDS011;26359;48.750;9.314;2023-05-07T02:26:27;32.15;;;30.23;;
40675;SDS011;26359;48.750;9.314;2023-05-07T02:28:52;18.88;;;17.60;;
40675;SDS011;26359;48.750;9.314;2023-05-07T02:31:18;15.50;;;14.38;;
40675;SDS011;26359;48.750;9.314;2023-05-07T02:33:44;21.45;;;20.02;;
40675;SDS011;26359;48.750;9.314;2023-05-07T02:36:10;10.75;;;9.95;;
40675;SDS011;26359;48.750;9.314;2023-05-07T02:38:37;9.63;;;8.77;;
40675;SDS011;26359;48.750;9.314;2023-05-07T02:41:03;25.48;;;23.90;;
40675;SDS011;26359;48.750;9.314;2023-05-07T02:43:28;32.28;;;30.38;;
40675;SDS011;26359;48.750;9.314;2023-05-07T02:46:01;17.17;;;15.98;;
40675;SDS011;26359;48.750;9.314;2023-05-07T02:48:27;18.55;;;17.08;;
40675;SDS011;26359;48.750;9.314;2023-05-07T02:50:53;22.45;;;20.75;;
40675;SDS011;26359;48.750;9.314;2023-05-07T02:53:18;39.53;;;37.00;;
40675;SDS011;26359;48.750;9.314;2023-05-07T02:55:44;36.83;;;34.70;;
40675;SDS011;26359;48.750;9.314;2023-05-07T02:58:09;37.90;;;35.65;;
40675;SDS011;26359;48.750;9.314;2023-05-07T03:00:35;30.52;;;28.65;;
40675;SDS011;26359;48.750;9.314;2023-05-07T03:03:01;45.60;;;42.90;;
40675;SDS011;26359;48.750;9.314;2023-05-07T03:05:26;21.95;;;20.45;;
40675;SDS011;26359;48.750;9.314;2023-05-07T03:07:52;9.38;;;8.65;;
40675;SDS011;26359;48.750;9.314;2023-05-07T03:10:17;36.50;;;34.42;;
40675;SDS011;26359;48.750;9.314;2023-05-07T03:12:43;13.48;;;12.52;;
40675;SDS011;26359;48.750;9.314;2023-05-07T03:15:09;55.25;;;52.03;;
40675;SDS011;26359;48.750;9.314;2023-05-07T03:17:36;19.67;;;18.30;;
40675;SDS011;26359;48.750;9.314;2023-05-07T03:20:02;29.85;;;27.92;;
40675;SDS011;26359;48.750;9.314;2023-05-07T03:22:27;23.35;;;21.70;;
40675;SDS011;26359;48.750;9.314;2023-05-07T03:24:53;34.00;;;32.00;;
40675;SDS011;26359;48.750;9.314;2023-05-07T03:27:18;44.80;;;42.17;;
40675;SDS011;26359;48.750;9.314;2023-05-07T03:29:44;44.88;;;42.40;;
40675;SDS011;26359;48.750;9.314;2023-05-07T03:32:09;42.22;;;39.78;;
40675;SDS011;26359;48.750;9.314;2023-05-07T03:34:35;40.28;;;37.75;;
40675;SDS011;26359;48.750;9.314;2023-05-07T03:37:01;33.90;;;31.70;;
40675;SDS011;26359;48.750;9.314;2023-05-07T03:39:26;31.83;;;29.73;;
40675;SDS011;26359;48.750;9.314;2023-05-07T03:41:52;26.58;;;25.10;;
40675;SDS011;26359;48.750;9.314;2023-05-07T03:44:18;20.67;;;19.27;;
40675;SDS011;26359;48.750;9.314;2023-05-07T03:46:43;23.63;;;22.15;;
40675;SDS011;26359;48.750;9.314;2023-05-07T03:49:09;17.55;;;16.40;;
40675;SDS011;26359;48.750;9.314;2023-05-07T03:51:34;17.77;;;16.55;;
40675;SDS011;26359;48.750;9.314;2023-05-07T03:54:01;18.35;;;17.15;;
40675;SDS011;26359;48.750;9.314;2023-05-07T03:56:26;18.67;;;17.48;;
40675;SDS011;26359;48.750;9.314;2023-05-07T03:58:52;19.92;;;18.67;;
40675;SDS011;26359;48.750;9.314;2023-05-07T04:01:18;15.18;;;14.13;;
40675;SDS011;26359;48.750;9.314;2023-05-07T04:03:44;14.50;;;13.50;;
40675;SDS011;26359;48.750;9.314;2023-05-07T04:06:09;14.48;;;13.48;;
40675;SDS011;26359;48.750;9.314;2023-05-07T04:08:35;11.73;;;10.63;;
40675;SDS011;26359;48.750;9.314;2023-05-07T04:11:01;16.77;;;15.57;;
40675;SDS011;26359;48.750;9.314;2023-05-07T04:13:26;13.82;;;12.82;;
40675;SDS011;26359;48.750;9.314;2023-05-07T04:15:52;33.50;;;31.42;;
40675;SDS011;26359;48.750;9.314;2023-05-07T04:18:21;31.10;;;29.05;;
40675;SDS011;26359;48.750;9.314;2023-05-07T04:20:47;24.05;;;22.55;;
40675;SDS011;26359;48.750;9.314;2023-05-07T04:23:14;29.45;;;27.67;;
40675;SDS011;26359;48.750;9.314;2023-05-07T04:25:39;31.60;;;29.70;;
40675;SDS011;26359;48.750;9.314;2023-05-07T04:28:05;29.08;;;26.98;;
40675;SDS011;26359;48.750;9.314;2023-05-07T04:30:31;22.23;;;20.90;;
40675;SDS011;26359;48.750;9.314;2023-05-07T04:32:56;13.80;;;12.80;;
40675;SDS011;26359;48.750;9.314;2023-05-07T04:35:22;12.48;;;11.38;;
40675;SDS011;26359;48.750;9.314;2023-05-07T04:37:47;9.18;;;8.38;;
40675;SDS011;26359;48.750;9.314;2023-05-07T04:40:13;11.15;;;9.90;;
40675;SDS011;26359;48.750;9.314;2023-05-07T04:42:39;10.13;;;9.43;;
40675;SDS011;26359;48.750;9.314;2023-05-07T04:45:04;12.98;;;11.88;;
40675;SDS011;26359;48.750;9.314;2023-05-07T04:47:30;12.43;;;11.52;;
40675;SDS011;26359;48.750;9.314;2023-05-07T04:49:57;9.10;;;8.15;;
40675;SDS011;26359;48.750;9.314;2023-05-07T04:52:23;10.68;;;8.98;;
40675;SDS011;26359;48.750;9.314;2023-05-07T04:54:48;10.25;;;9.35;;
40675;SDS011;26359;48.750;9.314;2023-05-07T04:57:14;11.48;;;10.38;;
40675;SDS011;26359;48.750;9.314;2023-05-07T04:59:39;10.20;;;9.30;;
40675;SDS011;26359;48.750;9.314;2023-05-07T05:02:05;9.23;;;8.63;;
40675;SDS011;26359;48.750;9.314;2023-05-07T05:04:30;9.35;;;8.48;;
40675;SDS011;26359;48.750;9.314;2023-05-07T05:06:56;6.85;;;6.28;;
40675;SDS011;26359;48.750;9.314;2023-05-07T05:09:23;13.05;;;12.00;;
40675;SDS011;26359;48.750;9.314;2023-05-07T05:11:48;13.48;;;12.18;;
40675;SDS011;26359;48.750;9.314;2023-05-07T05:14:14;13.23;;;12.07;;
40675;SDS011;26359;48.750;9.314;2023-05-07T05:16:39;12.00;;;11.00;;
40675;SDS011;26359;48.750;9.314;2023-05-07T05:19:05;12.55;;;11.63;;
40675;SDS011;26359;48.750;9.314;2023-05-07T05:21:30;12.95;;;11.85;;
40675;SDS011;26359;48.750;9.314;2023-05-07T05:23:56;16.55;;;15.27;;
40675;SDS011;26359;48.750;9.314;2023-05-07T05:26:22;12.85;;;11.85;;
40675;SDS011;26359;48.750;9.314;2023-05-07T05:28:47;9.50;;;8.80;;
40675;SDS011;26359;48.750;9.314;2023-05-07T05:31:13;10.57;;;9.55;;
40675;SDS011;26359;48.750;9.314;2023-05-07T05:33:39;11.25;;;10.27;;
40675;SDS011;26359;48.750;9.314;2023-05-07T05:36:05;10.27;;;9.38;;
40675;SDS011;26359;48.750;9.314;2023-05-07T05:38:31;10.45;;;9.55;;
40675;SDS011;26359;48.750;9.314;2023-05-07T05:40:56;9.35;;;8.52;;
40675;SDS011;26359;48.750;9.314;2023-05-07T05:43:22;9.18;;;8.27;;
40675;SDS011;26359;48.750;9.314;2023-05-07T05:45:47;7.53;;;6.80;;
40675;SDS011;26359;48.750;9.314;2023-05-07T05:48:13;10.27;;;8.18;;
40675;SDS011;26359;48.750;9.314;2023-05-07T05:50:38;7.63;;;6.90;;
40675;SDS011;26359;48.750;9.314;2023-05-07T05:53:04;8.82;;;7.97;;
40675;SDS011;26359;48.750;9.314;2023-05-07T05:55:30;14.98;;;13.82;;
40675;SDS011;26359;48.750;9.314;2023-05-07T05:57:57;17.58;;;16.30;;
40675;SDS011;26359;48.750;9.314;2023-05-07T06:00:23;24.35;;;22.85;;
40675;SDS011;26359;48.750;9.314;2023-05-07T06:02:48;26.65;;;25.02;;
40675;SDS011;26359;48.750;9.314;2023-05-07T06:05:14;23.35;;;21.85;;
40675;SDS011;26359;48.750;9.314;2023-05-07T06:07:39;13.93;;;12.88;;
40675;SDS011;26359;48.750;9.314;2023-05-07T06:10:05;14.70;;;13.50;;
40675;SDS011;26359;48.750;9.314;2023-05-07T06:12:31;34.40;;;32.22;;
40675;SDS011;26359;48.750;9.314;2023-05-07T06:14:57;25.15;;;23.65;;
40675;SDS011;26359;48.750;9.314;2023-05-07T06:17:22;27.50;;;25.80;;
40675;SDS011;26359;48.750;9.314;2023-05-07T06:19:48;41.55;;;39.17;;
40675;SDS011;26359;48.750;9.314;2023-05-07T06:22:13;43.40;;;41.05;;
40675;SDS011;26359;48.750;9.314;2023-05-07T06:24:39;22.25;;;20.90;;
40675;SDS011;26359;48.750;9.314;2023-05-07T06:27:04;19.55;;;18.05;;
40675;SDS011;26359;48.750;9.314;2023-05-07T06:29:30;23.67;;;22.17;;
40675;SDS011;26359;48.750;9.314;2023-05-07T06:32:02;20.90;;;19.42;;
40675;SDS011;26359;48.750;9.314;2023-05-07T06:34:32;15.13;;;14.10;;
40675;SDS011;26359;48.750;9.314;2023-05-07T06:36:57;15.25;;;14.35;;
40675;SDS011;26359;48.750;9.314;2023-05-07T06:39:23;10.57;;;9.77;;
40675;SDS011;26359;48.750;9.314;2023-05-07T06:41:48;15.18;;;14.18;;
40675;SDS011;26359;48.750;9.314;2023-05-07T06:44:14;11.93;;;10.90;;
40675;SDS011;26359;48.750;9.314;2023-05-07T06:46:40;8.18;;;7.68;;
40675;SDS011;26359;48.750;9.314;2023-05-07T06:49:06;7.13;;;6.63;;
40675;SDS011;26359;48.750;9.314;2023-05-07T06:51:32;9.57;;;8.82;;
40675;SDS011;26359;48.750;9.314;2023-05-07T06:53:57;13.35;;;12.45;;
40675;SDS011;26359;48.750;9.314;2023-05-07T06:56:23;8.15;;;7.38;;
40675;SDS011;26359;48.750;9.314;2023-05-07T06:58:49;13.73;;;12.73;;
40675;SDS011;26359;48.750;9.314;2023-05-07T07:01:14;14.00;;;12.88;;
40675;SDS011;26359;48.750;9.314;2023-05-07T07:03:40;11.45;;;10.52;;
40675;SDS011;26359;48.750;9.314;2023-05-07T07:06:06;11.02;;;10.02;;
40675;SDS011;26359;48.750;9.314;2023-05-07T07:08:31;11.40;;;10.60;;
40675;SDS011;26359;48.750;9.314;2023-05-07T07:10:57;12.52;;;11.55;;
40675;SDS011;26359;48.750;9.314;2023-05-07T07:13:22;17.40;;;16.17;;
40675;SDS011;26359;48.750;9.314;2023-05-07T07:15:48;10.15;;;9.15;;
40675;SDS011;26359;48.750;9.314;2023-05-07T07:18:13;9.63;;;9.02;;
40675;SDS011;26359;48.750;9.314;2023-05-07T07:20:39;7.90;;;7.13;;
40675;SDS011;26359;48.750;9.314;2023-05-07T07:23:05;8.02;;;7.35;;
40675;SDS011;26359;48.750;9.314;2023-05-07T07:25:30;7.93;;;7.22;;
40675;SDS011;26359;48.750;9.314;2023-05-07T07:27:56;8.60;;;7.95;;
40675;SDS011;26359;48.750;9.314;2023-05-07T07:30:21;9.07;;;8.27;;
40675;SDS011;26359;48.750;9.314;2023-05-07T07:32:47;9.55;;;8.73;;
40675;SDS011;26359;48.750;9.314;2023-05-07T07:35:12;8.65;;;8.05;;
40675;SDS011;26359;48.750;9.314;2023-05-07T07:37:38;11.93;;;11.00;;
40675;SDS011;26359;48.750;9.314;2023-05-07T07:40:03;13.65;;;12.57;;
40675;SDS011;26359;48.750;9.314;2023-05-07T07:42:29;8.48;;;7.80;;
40675;SDS011;26359;48.750;9.314;2023-05-07T07:44:55;7.38;;;6.75;;
40675;SDS011;26359;48.750;9.314;2023-05-07T07:47:22;14.95;;;13.90;;
40675;SDS011;26359;48.750;9.314;2023-05-07T07:49:47;12.30;;;11.15;;
40675;SDS011;26359;48.750;9.314;2023-05-07T07:52:13;9.70;;;9.00;;
40675;SDS011;26359;48.750;9.314;2023-05-07T07:54:38;11.35;;;10.68;;
40675;SDS011;26359;48.750;9.314;2023-05-07T07:57:04;13.35;;;12.35;;
40675;SDS011;26359;48.750;9.314;2023-05-07T07:59:30;10.82;;;10.02;;
40675;SDS011;26359;48.750;9.314;2023-05-07T08:01:55;7.95;;;7.30;;
40675;SDS011;26359;48.750;9.314;2023-05-07T08:04:22;8.23;;;7.55;;
40675;SDS011;26359;48.750;9.314;2023-05-07T08:06:48;8.20;;;7.53;;
40675;SDS011;26359;48.750;9.314;2023-05-07T08:09:19;7.70;;;6.97;;
40675;SDS011;26359;48.750;9.314;2023-05-07T08:11:45;9.27;;;8.55;;
40675;SDS011;26359;48.750;9.314;2023-05-07T08:14:10;9.68;;;8.68;;
40675;SDS011;26359;48.750;9.314;2023-05-07T08:16:36;10.70;;;10.00;;
40675;SDS011;26359;48.750;9.314;2023-05-07T08:19:02;9.45;;;8.65;;
40675;SDS011;26359;48.750;9.314;2023-05-07T08:21:28;7.90;;;7.30;;
40675;SDS011;26359;48.750;9.314;2023-05-07T08:23:53;10.00;;;9.40;;
40675;SDS011;26359;48.750;9.314;2023-05-07T08:26:19;9.88;;;9.10;;
40675;SDS011;26359;48.750;9.314;2023-05-07T08:28:45;22.88;;;21.52;;
40675;SDS011;26359;48.750;9.314;2023-05-07T08:31:10;17.15;;;15.90;;
40675;SDS011;26359;48.750;9.314;2023-05-07T08:33:36;10.73;;;9.77;;
40675;SDS011;26359;48.750;9.314;2023-05-07T08:36:03;10.55;;;9.80;;
40675;SDS011;26359;48.750;9.314;2023-05-07T08:38:29;12.73;;;11.82;;
40675;SDS011;26359;48.750;9.314;2023-05-07T08:40:55;10.80;;;9.95;;
40675;SDS011;26359;48.750;9.314;2023-05-07T08:43:20;8.32;;;7.30;;
40675;SDS011;26359;48.750;9.314;2023-05-07T08:45:48;13.13;;;12.32;;
40675;SDS011;26359;48.750;9.314;2023-05-07T08:48:17;10.60;;;9.90;;
40675;SDS011;26359;48.750;9.314;2023-05-07T08:50:44;9.40;;;8.60;;
40675;SDS011;26359;48.750;9.314;2023-05-07T08:53:10;14.80;;;13.80;;
40675;SDS011;26359;48.750;9.314;2023-05-07T08:55:35;11.10;;;10.30;;
40675;SDS011;26359;48.750;9.314;2023-05-07T08:58:01;9.52;;;8.88;;
40675;SDS011;26359;48.750;9.314;2023-05-07T09:00:26;8.98;;;8.10;;
40675;SDS011;26359;48.750;9.314;2023-05-07T09:02:52;9.77;;;9.05;;
40675;SDS011;26359;48.750;9.314;2023-05-07T09:05:18;10.60;;;9.80;;
40675;SDS011;26359;48.750;9.314;2023-05-07T09:07:44;15.65;;;14.70;;
40675;SDS011;26359;48.750;9.314;2023-05-07T09:10:11;17.45;;;16.38;;
40675;SDS011;26359;48.750;9.314;2023-05-07T09:12:38;11.43;;;10.52;;
40675;SDS011;26359;48.750;9.314;2023-05-07T09:15:04;12.40;;;11.60;;
40675;SDS011;26359;48.750;9.314;2023-05-07T09:17:30;19.70;;;18.50;;
40675;SDS011;26359;48.750;9.314;2023-05-07T09:19:56;16.85;;;15.88;;
40675;SDS011;26359;48.750;9.314;2023-05-07T09:22:26;16.42;;;15.20;;
40675;SDS011;26359;48.750;9.314;2023-05-07T09:24:52;16.15;;;15.07;;
40675;SDS011;26359;48.750;9.314;2023-05-07T09:27:17;18.48;;;17.20;;
40675;SDS011;26359;48.750;9.314;2023-05-07T09:29:43;20.73;;;19.48;;
40675;SDS011;26359;48.750;9.314;2023-05-07T09:32:09;24.85;;;23.50;;
40675;SDS011;26359;48.750;9.314;2023-05-07T09:34:35;22.98;;;21.58;;
40675;SDS011;26359;48.750;9.314;2023-05-07T09:37:04;24.08;;;22.50;;
40675;SDS011;26359;48.750;9.314;2023-05-07T09:39:40;28.95;;;27.38;;
40675;SDS011;26359;48.750;9.314;2023-05-07T09:42:07;24.90;;;23.60;;
40675;SDS011;26359;48.750;9.314;2023-05-07T09:44:33;22.40;;;21.10;;
40675;SDS011;26359;48.750;9.314;2023-05-07T09:47:00;18.02;;;16.80;;
40675;SDS011;26359;48.750;9.314;2023-05-07T09:49:28;17.02;;;16.02;;
40675;SDS011;26359;48.750;9.314;2023-05-07T09:51:55;20.05;;;15.82;;
40675;SDS011;26359;48.750;9.314;2023-05-07T09:54:24;10.82;;;9.73;;
40675;SDS011;26359;48.750;9.314;2023-05-07T09:56:51;8.07;;;7.38;;
40675;SDS011;26359;48.750;9.314;2023-05-07T09:59:17;13.55;;;12.70;;
40675;SDS011;26359;48.750;9.314;2023-05-07T10:01:45;10.23;;;9.27;;
40675;SDS011;26359;48.750;9.314;2023-05-07T10:04:12;12.10;;;11.32;;
40675;SDS011;26359;48.750;9.314;2023-05-07T10:06:39;12.60;;;11.70;;
40675;SDS011;26359;48.750;9.314;2023-05-07T10:09:05;18.88;;;17.17;;
40675;SDS011;26359;48.750;9.314;2023-05-07T10:11:34;19.85;;;18.52;;
40675;SDS011;26359;48.750;9.314;2023-05-07T10:14:01;21.92;;;20.35;;
40675;SDS011;26359;48.750;9.314;2023-05-07T10:16:28;24.83;;;23.38;;
40675;SDS011;26359;48.750;9.314;2023-05-07T10:18:58;15.82;;;11.52;;
40675;SDS011;26359;48.750;9.314;2023-05-07T10:21:24;19.60;;;18.33;;
40675;SDS011;26359;48.750;9.314;2023-05-07T10:24:16;12.00;;;11.23;;
40675;SDS011;26359;48.750;9.314;2023-05-07T10:26:45;12.13;;;11.32;;
40675;SDS011;26359;48.750;9.314;2023-05-07T10:34:45;10.25;;;9.57;;
40675;SDS011;26359;48.750;9.314;2023-05-07T10:37:13;17.40;;;16.15;;
40675;SDS011;26359;48.750;9.314;2023-05-07T10:39:39;22.60;;;20.77;;
40675;SDS011;26359;48.750;9.314;2023-05-07T10:42:12;17.08;;;16.02;;
40675;SDS011;26359;48.750;9.314;2023-05-07T10:44:39;15.93;;;15.05;;
40675;SDS011;26359;48.750;9.314;2023-05-07T10:47:05;14.82;;;13.95;;
40675;SDS011;26359;48.750;9.314;2023-05-07T10:52:17;12.88;;;11.90;;
40675;SDS011;26359;48.750;9.314;2023-05-07T10:54:44;12.27;;;11.50;;
40675;SDS011;26359;48.750;9.314;2023-05-07T11:00:00;6.25;;;5.82;;
40675;SDS011;26359;48.750;9.314;2023-05-07T11:03:04;6.47;;;5.90;;
40675;SDS011;26359;48.750;9.314;2023-05-07T11:05:24;8.30;;;7.70;;
40675;SDS011;26359;48.750;9.314;2023-05-07T11:07:57;9.25;;;8.57;;
40675;SDS011;26359;48.750;9.314;2023-05-07T11:10:47;10.98;;;10.38;;
40675;SDS011;26359;48.750;9.314;2023-05-07T11:13:18;7.93;;;7.32;;
40675;SDS011;26359;48.750;9.314;2023-05-07T11:16:05;7.22;;;6.70;;
40675;SDS011;26359;48.750;9.314;2023-05-07T11:18:51;7.78;;;7.18;;
40675;SDS011;26359;48.750;9.314;2023-05-07T11:21:33;7.95;;;7.25;;
40675;SDS011;26359;48.750;9.314;2023-05-07T11:24:04;7.95;;;7.35;;
40675;SDS011;26359;48.750;9.314;2023-05-07T11:26:30;12.95;;;12.05;;
40675;SDS011;26359;48.750;9.314;2023-05-07T11:29:10;11.60;;;10.65;;
40675;SDS011;26359;48.750;9.314;2023-05-07T11:31:43;9.25;;;8.65;;
40675;SDS011;26359;48.750;9.314;2023-05-07T11:34:08;8.63;;;8.02;;
40675;SDS011;26359;48.750;9.314;2023-05-07T11:36:34;7.72;;;7.10;;
40675;SDS011;26359;48.750;9.314;2023-05-07T11:39:05;7.10;;;6.60;;
40675;SDS011;26359;48.750;9.314;2023-05-07T11:41:47;8.07;;;7.47;;
40675;SDS011;26359;48.750;9.314;2023-05-07T11:44:13;7.82;;;7.13;;
40675;SDS011;26359;48.750;9.314;2023-05-07T11:46:42;6.93;;;6.43;;
40675;SDS011;26359;48.750;9.314;2023-05-07T11:49:09;6.82;;;6.32;;
40675;SDS011;26359;48.750;9.314;2023-05-07T11:51:35;8.25;;;7.72;;
40675;SDS011;26359;48.750;9.314;2023-05-07T11:54:00;10.05;;;9.20;;
40675;SDS011;26359;48.750;9.314;2023-05-07T11:56:29;9.82;;;9.18;;
40675;SDS011;26359;48.750;9.314;2023-05-07T11:58:54;8.63;;;7.93;;
40675;SDS011;26359;48.750;9.314;2023-05-07T12:01:20;6.40;;;5.93;;
40675;SDS011;26359;48.750;9.314;2023-05-07T12:03:45;7.35;;;6.85;;
40675;SDS011;26359;48.750;9.314;2023-05-07T12:06:11;4.78;;;4.38;;
40675;SDS011;26359;48.750;9.314;2023-05-07T12:08:38;5.80;;;5.40;;
40675;SDS011;26359;48.750;9.314;2023-05-07T12:11:07;5.70;;;5.30;;
40675;SDS011;26359;48.750;9.314;2023-05-07T12:13:34;4.70;;;4.40;;
40675;SDS011;26359;48.750;9.314;2023-05-07T12:16:00;4.90;;;4.60;;
40675;SDS011;26359;48.750;9.314;2023-05-07T12:18:28;5.55;;;5.13;;
40675;SDS011;26359;48.750;9.314;2023-05-07T12:20:54;16.67;;;15.75;;
40675;SDS011;26359;48.750;9.314;2023-05-07T12:23:20;12.13;;;11.43;;
40675;SDS011;26359;48.750;9.314;2023-05-07T12:25:46;10.90;;;10.20;;
40675;SDS011;26359;48.750;9.314;2023-05-07T12:28:13;7.55;;;7.07;;
40675;SDS011;26359;48.750;9.314;2023-05-07T12:30:43;19.38;;;18.17;;
40675;SDS011;26359;48.750;9.314;2023-05-07T12:33:10;8.90;;;8.20;;
40675;SDS011;26359;48.750;9.314;2023-05-07T12:35:36;7.85;;;7.32;;
40675;SDS011;26359;48.750;9.314;2023-05-07T12:38:06;7.43;;;6.72;;
40675;SDS011;26359;48.750;9.314;2023-05-07T12:40:43;7.20;;;6.55;;
40675;SDS011;26359;48.750;9.314;2023-05-07T12:43:15;17.08;;;15.95;;
40675;SDS011;26359;48.750;9.314;2023-05-07T12:45:42;9.00;;;8.15;;
40675;SDS011;26359;48.750;9.314;2023-05-07T12:48:11;6.38;;;5.88;;
40675;SDS011;26359;48.750;9.314;2023-05-07T12:50:37;5.80;;;5.30;;
40675;SDS011;26359;48.750;9.314;2023-05-07T12:53:03;8.63;;;8.00;;
40675;SDS011;26359;48.750;9.314;2023-05-07T12:55:31;8.02;;;7.43;;
40675;SDS011;26359;48.750;9.314;2023-05-07T12:57:57;8.20;;;7.70;;
40675;SDS011;26359;48.750;9.314;2023-05-07T13:00:36;8.70;;;8.10;;
40675;SDS011;26359;48.750;9.314;2023-05-07T13:03:02;8.07;;;7.47;;
40675;SDS011;26359;48.750;9.314;2023-05-07T13:05:28;11.93;;;11.15;;
40675;SDS011;26359;48.750;9.314;2023-05-07T13:07:57;18.13;;;16.40;;
40675;SDS011;26359;48.750;9.314;2023-05-07T13:10:23;28.80;;;23.30;;
40675;SDS011;26359;48.750;9.314;2023-05-07T13:12:50;18.45;;;16.65;;
40675;SDS011;26359;48.750;9.314;2023-05-07T13:15:16;15.38;;;10.85;;
40675;SDS011;26359;48.750;9.314;2023-05-07T13:17:42;9.85;;;8.85;;
40675;SDS011;26359;48.750;9.314;2023-05-07T13:20:09;14.15;;;13.00;;
40675;SDS011;26359;48.750;9.314;2023-05-07T13:22:36;16.48;;;14.75;;
40675;SDS011;26359;48.750;9.314;2023-05-07T13:25:02;12.70;;;8.98;;
40675;SDS011;26359;48.750;9.314;2023-05-07T13:27:27;6.20;;;5.10;;
40675;SDS011;26359;48.750;9.314;2023-05-07T13:29:55;7.07;;;6.05;;
40675;SDS011;26359;48.750;9.314;2023-05-07T13:32:21;9.80;;;9.10;;
40675;SDS011;26359;48.750;9.314;2023-05-07T13:34:46;8.20;;;7.60;;
40675;SDS011;26359;48.750;9.314;2023-05-07T13:37:12;6.43;;;5.63;;
40675;SDS011;26359;48.750;9.314;2023-05-07T13:39:37;5.85;;;5.45;;
40675;SDS011;26359;48.750;9.314;2023-05-07T13:42:03;5.15;;;4.75;;
40675;SDS011;26359;48.750;9.314;2023-05-07T13:44:29;7.25;;;6.80;;
40675;SDS011;26359;48.750;9.314;2023-05-07T13:46:54;5.28;;;4.88;;
40675;SDS011;26359;48.750;9.314;2023-05-07T13:49:20;21.58;;;20.40;;
40675;SDS011;26359;48.750;9.314;2023-05-07T13:51:45;27.75;;;26.25;;
40675;SDS011;26359;48.750;9.314;2023-05-07T13:54:11;14.18;;;13.45;;
40675;SDS011;26359;48.750;9.314;2023-05-07T13:56:36;10.80;;;10.00;;
40675;SDS011;26359;48.750;9.314;2023-05-07T13:59:02;10.93;;;10.25;;
40675;SDS011;26359;48.750;9.314;2023-05-07T14:01:27;6.25;;;5.78;;
40675;SDS011;26359;48.750;9.314;2023-05-07T14:03:53;6.45;;;5.97;;
40675;SDS011;26359;48.750;9.314;2023-05-07T14:06:19;12.57;;;11.77;;
40675;SDS011;26359;48.750;9.314;2023-05-07T14:08:44;9.77;;;8.70;;
40675;SDS011;26359;48.750;9.314;2023-05-07T14:11:10;6.80;;;6.07;;
40675;SDS011;26359;48.750;9.314;2023-05-07T14:13:35;5.43;;;4.90;;
40675;SDS011;26359;48.750;9.314;2023-05-07T14:16:01;5.45;;;3.85;;
40675;SDS011;26359;48.750;9.314;2023-05-07T14:18:26;6.45;;;5.82;;
40675;SDS011;26359;48.750;9.314;2023-05-07T14:20:53;9.68;;;7.15;;
40675;SDS011;26359;48.750;9.314;2023-05-07T14:23:19;9.18;;;6.25;;
40675;SDS011;26359;48.750;9.314;2023-05-07T14:25:47;9.95;;;9.13;;
40675;SDS011;26359;48.750;9.314;2023-05-07T14:28:12;6.47;;;5.82;;
40675;SDS011;26359;48.750;9.314;2023-05-07T14:30:38;8.20;;;7.60;;
40675;SDS011;26359;48.750;9.314;2023-05-07T14:33:04;5.55;;;5.00;;
40675;SDS011;26359;48.750;9.314;2023-05-07T14:35:29;7.50;;;4.75;;
40675;SDS011;26359;48.750;9.314;2023-05-07T14:37:55;5.50;;;5.10;;